createdAt,value
2019-03-31T00:01:12.145Z,37.87
2019-03-31T00:03:47.737Z,40.20
2019-03-31T00:06:24.102Z,40.30
2019-03-31T00:08:59.372Z,37.73
2019-03-31T00:11:34.151Z,37.97
2019-03-31T00:14:08.605Z,38.43
2019-03-31T00:16:43.486Z,41.80
2019-03-31T00:19:18.556Z,38.30
2019-03-31T00:21:53.032Z,40.50
2019-03-31T00:24:27.556Z,38.67
2019-03-31T00:27:02.242Z,40.10
2019-03-31T00:29:37.185Z,42.20
2019-03-31T00:32:13.992Z,42.53
2019-03-31T00:34:50.011Z,40.50
2019-03-31T00:37:26.480Z,40.30
2019-03-31T00:40:00.858Z,44.00
2019-03-31T00:42:35.430Z,43.70
2019-03-31T00:45:10.666Z,43.30
2019-03-31T00:47:45.474Z,42.57
2019-03-31T00:50:19.907Z,42.33
2019-03-31T00:52:54.817Z,43.47
2019-03-31T00:55:29.619Z,42.60
2019-03-31T00:58:04.831Z,44.53
2019-03-31T01:00:57.251Z,42.97
2019-03-31T01:03:35.211Z,44.60
2019-03-31T01:06:10.167Z,45.30
2019-03-31T01:08:45.021Z,43.50
2019-03-31T01:11:27.559Z,45.97
2019-03-31T01:14:03.180Z,43.00
2019-03-31T01:16:39.571Z,42.93
2019-03-31T01:19:14.593Z,42.80
2019-03-31T01:21:50.949Z,44.03
2019-03-31T01:24:25.518Z,43.40
2019-03-31T01:27:00.408Z,43.20
2019-03-31T01:29:34.967Z,44.80
2019-03-31T01:32:09.560Z,46.87
2019-03-31T01:34:44.089Z,44.37
2019-03-31T01:37:20.222Z,47.67
2019-03-31T01:39:55.258Z,45.90
2019-03-31T01:42:32.058Z,43.20
2019-03-31T01:45:06.758Z,46.50
2019-03-31T01:47:41.570Z,45.23
2019-03-31T01:50:17.759Z,44.23
2019-03-31T01:52:54.229Z,42.50
2019-03-31T01:55:38.297Z,46.17
2019-03-31T01:58:13.002Z,44.93
2019-03-31T02:00:56.137Z,44.43
2019-03-31T02:03:31.181Z,47.20
2019-03-31T02:06:05.951Z,47.07
2019-03-31T02:08:40.399Z,44.33
2019-03-31T02:11:14.988Z,48.20
2019-03-31T02:13:49.429Z,45.80
2019-03-31T02:16:24.971Z,45.00
2019-03-31T02:18:59.555Z,48.97
2019-03-31T02:21:35.712Z,49.60
2019-03-31T02:24:11.878Z,46.67
2019-03-31T02:26:46.717Z,47.03
2019-03-31T02:29:21.148Z,45.80
2019-03-31T02:31:56.023Z,47.73
2019-03-31T02:34:30.509Z,46.63
2019-03-31T02:37:05.436Z,47.20
2019-03-31T02:39:40.116Z,44.67
2019-03-31T02:42:14.993Z,45.57
2019-03-31T02:44:49.441Z,45.27
2019-03-31T02:47:24.003Z,42.70
2019-03-31T02:49:59.961Z,40.93
2019-03-31T02:52:34.643Z,42.50
2019-03-31T02:55:09.414Z,40.00
2019-03-31T02:57:45.010Z,40.03
2019-03-31T03:00:19.368Z,38.83
2019-03-31T03:02:53.973Z,39.93
2019-03-31T03:05:30.556Z,38.43
2019-03-31T03:08:09.177Z,39.33
2019-03-31T03:10:45.985Z,38.90
2019-03-31T03:13:23.155Z,40.43
2019-03-31T03:16:26.736Z,39.83
2019-03-31T03:19:02.932Z,40.60
2019-03-31T03:21:37.545Z,38.97
2019-03-31T03:24:13.824Z,40.93
2019-03-31T03:26:50.158Z,44.10
2019-03-31T03:29:24.828Z,42.93
2019-03-31T03:31:59.830Z,42.90
2019-03-31T03:34:34.647Z,45.70
2019-03-31T03:37:09.417Z,45.23
2019-03-31T03:39:45.892Z,46.27
2019-03-31T03:42:20.228Z,43.87
2019-03-31T03:44:54.658Z,44.63
2019-03-31T03:47:30.985Z,45.57
2019-03-31T03:50:05.643Z,46.07
2019-03-31T03:52:40.247Z,47.50
2019-03-31T03:55:14.990Z,45.27
2019-03-31T03:57:49.569Z,48.67
2019-03-31T04:00:25.674Z,49.37
2019-03-31T04:03:03.183Z,51.50
2019-03-31T04:05:39.524Z,46.80
2019-03-31T04:08:14.459Z,48.10
2019-03-31T04:11:14.429Z,46.33
2019-03-31T04:13:49.084Z,45.77
2019-03-31T04:16:23.680Z,43.23
2019-03-31T04:18:58.621Z,40.10
2019-03-31T04:21:35.007Z,42.90
2019-03-31T04:24:09.582Z,43.40
2019-03-31T04:26:46.231Z,43.67
2019-03-31T04:29:20.727Z,41.03
2019-03-31T04:31:55.242Z,40.50
2019-03-31T04:34:29.888Z,40.43
2019-03-31T04:37:07.374Z,38.70
2019-03-31T04:39:43.425Z,38.67
2019-03-31T04:42:18.027Z,38.53
2019-03-31T04:44:52.617Z,38.50
2019-03-31T04:47:27.208Z,38.40
2019-03-31T04:50:01.641Z,35.60
2019-03-31T04:52:36.474Z,37.20
2019-03-31T04:55:12.346Z,35.33
2019-03-31T04:57:46.844Z,36.57
2019-03-31T05:00:21.444Z,36.27
2019-03-31T05:02:56.391Z,34.53
2019-03-31T05:05:30.900Z,34.70
2019-03-31T05:08:05.772Z,33.60
2019-03-31T05:10:40.385Z,36.33
2019-03-31T05:13:15.269Z,32.77
2019-03-31T05:15:50.041Z,34.00
2019-03-31T05:18:24.515Z,33.17
2019-03-31T05:20:59.111Z,31.10
2019-03-31T05:23:33.590Z,33.60
2019-03-31T05:26:08.551Z,33.20
2019-03-31T05:28:44.306Z,33.40
2019-03-31T05:31:20.767Z,32.23
2019-03-31T05:33:57.453Z,33.43
2019-03-31T05:36:32.251Z,32.80
2019-03-31T05:39:08.793Z,31.00
2019-03-31T05:41:43.476Z,31.90
2019-03-31T05:44:17.996Z,33.90
2019-03-31T05:46:52.523Z,32.80
2019-03-31T05:49:27.030Z,30.47
2019-03-31T05:52:01.575Z,31.60
2019-03-31T05:54:36.203Z,32.80
2019-03-31T05:57:10.613Z,32.33
2019-03-31T05:59:45.370Z,33.17
2019-03-31T06:02:20.564Z,33.40
2019-03-31T06:04:55.114Z,32.10
2019-03-31T06:07:29.881Z,30.40
2019-03-31T06:10:04.918Z,30.93
2019-03-31T06:12:41.247Z,33.60
2019-03-31T06:15:17.331Z,32.57
2019-03-31T06:17:51.969Z,31.73
2019-03-31T06:20:28.364Z,30.70
2019-03-31T06:23:03.151Z,30.20
2019-03-31T06:25:37.919Z,30.20
2019-03-31T06:28:12.341Z,30.50
2019-03-31T06:30:47.009Z,28.27
2019-03-31T06:33:21.627Z,29.10
2019-03-31T06:35:56.455Z,28.60
2019-03-31T06:38:31.095Z,29.13
2019-03-31T06:41:05.480Z,27.97
2019-03-31T06:43:40.836Z,26.00
2019-03-31T06:46:15.211Z,26.60
2019-03-31T06:48:51.558Z,24.83
2019-03-31T06:51:25.919Z,24.10
2019-03-31T06:54:03.989Z,24.27
2019-03-31T06:56:40.285Z,22.90
2019-03-31T06:59:17.211Z,21.40
2019-03-31T07:01:51.687Z,21.50
2019-03-31T07:04:26.262Z,19.27
2019-03-31T07:07:02.869Z,16.40
2019-03-31T07:09:37.905Z,16.90
2019-03-31T07:12:12.869Z,17.20
2019-03-31T07:14:47.474Z,14.97
2019-03-31T07:17:22.039Z,14.37
2019-03-31T07:19:56.687Z,15.87
2019-03-31T07:22:32.695Z,15.60
2019-03-31T07:25:08.978Z,12.70
2019-03-31T07:27:43.828Z,13.50
2019-03-31T07:30:19.693Z,11.27
2019-03-31T07:32:54.153Z,12.20
2019-03-31T07:35:29.088Z,12.93
2019-03-31T07:38:03.573Z,19.00
2019-03-31T07:40:38.447Z,14.20
2019-03-31T07:43:13.376Z,13.80
2019-03-31T07:45:47.964Z,19.40
2019-03-31T07:48:22.577Z,17.40
2019-03-31T07:50:57.630Z,20.90
2019-03-31T07:53:32.213Z,15.57
2019-03-31T07:56:06.811Z,13.90
2019-03-31T07:58:41.285Z,14.63
2019-03-31T08:01:15.717Z,14.30
2019-03-31T08:03:50.129Z,13.10
2019-03-31T08:06:24.589Z,13.10
2019-03-31T08:08:58.943Z,11.87
2019-03-31T08:11:33.392Z,12.10
2019-03-31T08:14:07.962Z,10.37
2019-03-31T08:16:42.463Z,11.63
2019-03-31T08:19:16.951Z,13.07
2019-03-31T08:21:51.609Z,12.83
2019-03-31T08:24:26.270Z,10.73
2019-03-31T08:27:00.888Z,13.67
2019-03-31T08:29:36.425Z,11.33
2019-03-31T08:32:13.297Z,11.47
2019-03-31T08:34:48.188Z,7.63
2019-03-31T08:37:25.000Z,6.47
2019-03-31T08:39:59.944Z,6.70
2019-03-31T08:42:34.786Z,7.00
2019-03-31T08:45:10.307Z,6.57
2019-03-31T08:47:44.872Z,6.93
2019-03-31T08:50:20.082Z,5.70
2019-03-31T08:52:54.601Z,7.20
2019-03-31T08:55:29.034Z,6.00
2019-03-31T08:58:03.594Z,6.10
2019-03-31T09:00:51.275Z,5.93
2019-03-31T09:03:26.115Z,6.57
2019-03-31T09:06:02.439Z,7.07
2019-03-31T09:08:40.096Z,7.03
2019-03-31T09:11:16.827Z,7.03
2019-03-31T09:13:51.271Z,6.77
2019-03-31T09:16:25.773Z,6.63
2019-03-31T09:19:00.451Z,5.73
2019-03-31T09:21:35.004Z,7.60
2019-03-31T09:24:09.565Z,6.43
2019-03-31T09:26:45.922Z,6.40
2019-03-31T09:29:20.653Z,7.27
2019-03-31T09:31:55.224Z,6.20
2019-03-31T09:34:30.060Z,5.60
2019-03-31T09:37:04.741Z,5.80
2019-03-31T09:39:42.978Z,5.10
2019-03-31T09:42:17.706Z,5.27
2019-03-31T09:44:52.373Z,5.33
2019-03-31T09:47:27.039Z,4.90
2019-03-31T09:50:04.451Z,5.07
2019-03-31T09:52:38.917Z,4.20
2019-03-31T09:55:15.215Z,4.10
2019-03-31T09:57:51.273Z,4.07
2019-03-31T10:00:48.804Z,4.30
2019-03-31T10:03:25.322Z,4.57
2019-03-31T10:06:10.782Z,4.77
2019-03-31T10:08:37.215Z,5.30
2019-03-31T10:11:13.568Z,4.03
2019-03-31T10:13:50.456Z,5.80
2019-03-31T10:16:29.993Z,4.33
2019-03-31T10:19:07.491Z,9.13
2019-03-31T10:21:43.340Z,7.00
2019-03-31T10:24:22.253Z,5.13
2019-03-31T10:26:57.227Z,3.17
2019-03-31T10:29:32.327Z,2.40
2019-03-31T10:32:07.188Z,1.70
2019-03-31T10:34:41.900Z,2.00
2019-03-31T10:37:17.545Z,2.07
2019-03-31T10:39:55.141Z,1.77
2019-03-31T10:42:29.664Z,1.80
2019-03-31T10:45:04.260Z,2.00
2019-03-31T10:47:40.605Z,1.97
2019-03-31T10:50:15.672Z,2.00
2019-03-31T10:52:50.623Z,1.37
2019-03-31T10:55:25.130Z,2.27
2019-03-31T10:57:59.778Z,1.70
2019-03-31T11:00:39.130Z,1.60
2019-03-31T11:03:16.442Z,1.63
2019-03-31T11:05:51.033Z,1.40
2019-03-31T11:08:25.753Z,1.30
2019-03-31T11:11:43.374Z,1.63
2019-03-31T11:14:18.737Z,1.77
2019-03-31T11:16:53.220Z,1.37
2019-03-31T11:19:29.217Z,1.50
2019-03-31T11:22:17.829Z,1.07
2019-03-31T11:24:54.550Z,0.70
2019-03-31T11:27:29.318Z,1.30
2019-03-31T11:30:04.097Z,1.10
2019-03-31T11:32:38.961Z,1.17
2019-03-31T11:35:14.095Z,0.70
2019-03-31T11:37:50.198Z,1.20
2019-03-31T11:40:24.657Z,1.77
2019-03-31T11:43:52.356Z,1.43
2019-03-31T11:46:28.274Z,1.27
2019-03-31T11:49:03.217Z,2.10
2019-03-31T11:51:39.646Z,2.07
2019-03-31T11:54:15.467Z,2.20
2019-03-31T11:56:51.631Z,2.27
2019-03-31T11:59:27.691Z,1.70
2019-03-31T12:02:02.438Z,1.57
2019-03-31T12:04:37.141Z,1.40
2019-03-31T12:07:12.064Z,1.67
2019-03-31T12:09:47.653Z,1.70
2019-03-31T12:12:22.959Z,1.80
2019-03-31T12:15:00.640Z,1.50
2019-03-31T12:17:33.597Z,1.73
2019-03-31T12:20:08.341Z,1.50
2019-03-31T12:22:43.082Z,1.63
2019-03-31T12:25:19.897Z,1.50
2019-03-31T12:27:54.089Z,1.70
2019-03-31T12:30:31.875Z,1.47
2019-03-31T12:33:06.532Z,1.53
2019-03-31T12:35:41.429Z,2.17
2019-03-31T12:38:16.166Z,1.90
2019-03-31T12:40:50.559Z,1.87
2019-03-31T12:43:25.474Z,1.47
2019-03-31T12:46:01.683Z,1.67
2019-03-31T12:48:36.407Z,1.70
2019-03-31T12:51:11.478Z,1.40
2019-03-31T12:53:46.010Z,1.37
2019-03-31T12:56:20.846Z,2.50
2019-03-31T12:58:55.569Z,1.50
2019-03-31T13:01:30.270Z,1.93
2019-03-31T13:04:04.720Z,1.57
2019-03-31T13:06:39.367Z,1.83
2019-03-31T13:09:15.702Z,1.97
2019-03-31T13:11:50.580Z,2.00
2019-03-31T13:14:25.552Z,1.70
2019-03-31T13:17:01.793Z,1.83
2019-03-31T13:19:36.869Z,1.63
2019-03-31T13:22:11.510Z,1.40
2019-03-31T13:24:46.355Z,1.70
2019-03-31T13:27:21.152Z,1.97
2019-03-31T13:29:56.191Z,1.30
2019-03-31T13:32:30.641Z,1.60
2019-03-31T13:35:09.038Z,1.60
2019-03-31T13:37:43.706Z,2.10
2019-03-31T13:40:18.351Z,1.70
2019-03-31T13:42:54.591Z,2.37
2019-03-31T13:45:29.221Z,2.13
2019-03-31T13:48:04.573Z,2.70
2019-03-31T13:50:39.377Z,1.07
2019-03-31T13:53:16.299Z,1.73
2019-03-31T13:55:51.334Z,1.83
2019-03-31T13:58:27.966Z,1.57
2019-03-31T14:01:02.432Z,1.90
2019-03-31T14:03:38.728Z,1.60
2019-03-31T14:06:13.262Z,1.77
2019-03-31T14:08:48.165Z,2.17
2019-03-31T14:11:24.624Z,1.83
2019-03-31T14:14:01.208Z,1.67
2019-03-31T14:16:35.814Z,2.77
2019-03-31T14:19:13.123Z,1.87
2019-03-31T14:21:47.800Z,1.80
2019-03-31T14:24:22.493Z,2.30
2019-03-31T14:26:59.271Z,1.47
2019-03-31T14:29:33.877Z,1.93
2019-03-31T14:32:10.162Z,1.50
2019-03-31T14:34:45.749Z,1.30
2019-03-31T14:37:20.388Z,2.63
2019-03-31T14:39:54.805Z,1.80
2019-03-31T14:42:29.214Z,2.40
2019-03-31T14:45:03.645Z,1.33
2019-03-31T14:47:41.711Z,1.53
2019-03-31T14:50:30.202Z,1.50
2019-03-31T14:53:04.813Z,1.70
2019-03-31T14:55:39.582Z,2.17
2019-03-31T14:58:14.123Z,4.00
2019-03-31T15:00:48.656Z,2.30
2019-03-31T15:03:23.285Z,2.20
2019-03-31T15:05:59.831Z,1.90
2019-03-31T15:08:35.708Z,1.67
2019-03-31T15:11:10.261Z,1.23
2019-03-31T15:13:46.431Z,1.50
2019-03-31T15:16:20.817Z,1.53
2019-03-31T15:18:55.445Z,1.60
2019-03-31T15:21:31.399Z,1.70
2019-03-31T15:24:06.036Z,1.53
2019-03-31T15:26:40.663Z,1.17
2019-03-31T15:29:15.220Z,1.40
2019-03-31T15:31:50.264Z,1.63
2019-03-31T15:34:24.719Z,1.43
2019-03-31T15:37:00.186Z,1.80
2019-03-31T15:39:34.842Z,1.43
2019-03-31T15:42:09.500Z,1.73
2019-03-31T15:44:44.001Z,1.43
2019-03-31T15:47:18.561Z,1.47
2019-03-31T15:49:53.156Z,1.87
2019-03-31T15:52:27.728Z,1.87
2019-03-31T15:55:02.436Z,1.60
2019-03-31T15:57:37.176Z,1.53
2019-03-31T16:00:12.380Z,2.30
2019-03-31T16:02:46.872Z,1.77
2019-03-31T16:05:23.327Z,1.60
2019-03-31T16:07:57.420Z,1.23
2019-03-31T16:10:31.443Z,2.00
2019-03-31T16:13:05.093Z,1.37
2019-03-31T16:15:38.823Z,1.60
2019-03-31T16:18:12.496Z,1.70
2019-03-31T16:20:46.886Z,2.03
2019-03-31T16:23:20.511Z,1.60
2019-03-31T16:25:56.832Z,1.97
2019-03-31T16:28:31.888Z,1.33
2019-03-31T16:31:06.628Z,1.57
2019-03-31T16:33:41.131Z,1.77
2019-03-31T16:36:16.394Z,1.43
2019-03-31T16:38:52.144Z,1.17
2019-03-31T16:41:25.775Z,1.60
2019-03-31T16:43:59.802Z,1.40
2019-03-31T16:46:33.506Z,1.43
2019-03-31T16:49:07.478Z,1.40
2019-03-31T16:51:41.355Z,1.73
2019-03-31T16:54:16.514Z,2.27
2019-03-31T16:56:50.559Z,1.60
2019-03-31T16:59:24.225Z,1.73
2019-03-31T17:01:59.487Z,2.80
2019-03-31T17:04:33.190Z,2.60
2019-03-31T17:07:07.956Z,1.93
2019-03-31T17:09:51.320Z,2.03
2019-03-31T17:12:17.870Z,1.60
2019-03-31T17:14:52.788Z,1.90
2019-03-31T17:17:27.175Z,2.97
2019-03-31T17:20:02.690Z,2.43
2019-03-31T17:22:36.239Z,3.13
2019-03-31T17:25:10.192Z,1.80
2019-03-31T17:27:43.811Z,1.93
2019-03-31T17:30:22.589Z,1.40
2019-03-31T17:32:56.542Z,1.70
2019-03-31T17:35:30.811Z,1.20
2019-03-31T17:38:05.011Z,2.00
2019-03-31T17:40:39.684Z,1.30
2019-03-31T17:43:14.659Z,1.80
2019-03-31T17:45:51.314Z,1.70
2019-03-31T17:48:27.991Z,1.60
2019-03-31T17:51:01.682Z,1.63
2019-03-31T17:53:38.771Z,1.20
2019-03-31T17:56:14.647Z,1.57
2019-03-31T17:58:49.272Z,1.50
2019-03-31T18:01:22.959Z,1.47
2019-03-31T18:03:56.662Z,1.40
2019-03-31T18:06:33.399Z,1.50
2019-03-31T18:09:10.169Z,1.20
2019-03-31T18:11:47.912Z,1.80
2019-03-31T18:14:21.443Z,2.13
2019-03-31T18:16:57.884Z,2.37
2019-03-31T18:19:31.699Z,1.77
2019-03-31T18:22:16.425Z,3.10
2019-03-31T18:24:41.511Z,1.80
2019-03-31T18:27:18.516Z,2.03
2019-03-31T18:29:52.805Z,2.07
2019-03-31T18:32:28.067Z,1.80
2019-03-31T18:35:02.312Z,1.63
2019-03-31T18:37:35.926Z,1.90
2019-03-31T18:40:12.591Z,1.80
2019-03-31T18:42:49.583Z,2.20
2019-03-31T18:45:24.045Z,1.90
2019-03-31T18:48:03.224Z,2.00
2019-03-31T18:50:36.835Z,1.90
2019-03-31T18:53:12.926Z,2.03
2019-03-31T18:56:08.685Z,2.73
2019-03-31T18:59:09.854Z,2.23
2019-03-31T19:01:55.180Z,1.93
2019-03-31T19:04:39.336Z,1.90
2019-03-31T19:07:45.408Z,2.63
2019-03-31T19:10:49.652Z,1.93
2019-03-31T19:13:38.374Z,2.03
2019-03-31T19:16:46.232Z,2.83
2019-03-31T19:19:51.389Z,2.60
2019-03-31T19:22:56.337Z,3.03
2019-03-31T19:25:47.675Z,3.03
2019-03-31T19:28:39.637Z,4.00
2019-03-31T19:31:23.704Z,4.00
2019-03-31T19:34:22.601Z,3.87
2019-03-31T19:37:03.196Z,3.43
2019-03-31T19:40:08.304Z,3.00
2019-03-31T19:43:18.708Z,3.23
2019-03-31T19:46:08.671Z,3.70
2019-03-31T19:48:48.235Z,3.03
2019-03-31T19:51:54.918Z,3.07
2019-03-31T19:55:03.017Z,3.40
2019-03-31T19:58:02.639Z,2.27
2019-03-31T20:00:50.446Z,2.40
2019-03-31T20:03:40.762Z,2.33
2019-03-31T20:06:39.183Z,2.30
2019-03-31T20:09:32.083Z,2.20
2019-03-31T20:12:36.503Z,2.20
2019-03-31T20:15:40.622Z,2.00
2019-03-31T20:18:41.113Z,1.83
2019-03-31T20:21:31.797Z,1.77
2019-03-31T20:24:18.667Z,2.30
2019-03-31T20:26:58.553Z,1.70
2019-03-31T20:29:43.451Z,2.37
2019-03-31T20:32:41.812Z,2.00
2019-03-31T20:35:40.031Z,2.37
2019-03-31T20:38:31.954Z,2.17
2019-03-31T20:41:27.290Z,2.07
2019-03-31T20:44:00.914Z,2.90
2019-03-31T20:46:34.815Z,3.67
2019-03-31T20:49:08.473Z,3.00
2019-03-31T20:51:42.135Z,2.53
2019-03-31T20:54:15.811Z,2.67
2019-03-31T20:56:49.428Z,2.63
2019-03-31T20:59:24.060Z,2.10
2019-03-31T21:01:58.097Z,2.73
2019-03-31T21:04:31.671Z,2.27
2019-03-31T21:07:05.277Z,2.57
2019-03-31T21:09:45.268Z,2.27
2019-03-31T21:12:14.251Z,2.37
2019-03-31T21:14:47.939Z,2.27
2019-03-31T21:17:23.326Z,2.30
2019-03-31T21:19:57.337Z,2.07
2019-03-31T21:22:31.001Z,2.43
2019-03-31T21:25:04.789Z,2.70
2019-03-31T21:27:38.599Z,3.13
2019-03-31T21:30:12.879Z,2.30
2019-03-31T21:32:46.748Z,2.40
2019-03-31T21:35:20.761Z,2.67
2019-03-31T21:37:54.466Z,2.70
2019-03-31T21:40:28.067Z,1.93
2019-03-31T21:43:02.875Z,2.27
2019-03-31T21:45:36.444Z,2.00
2019-03-31T21:48:10.018Z,2.07
2019-03-31T21:50:45.137Z,1.93
2019-03-31T21:53:18.844Z,3.77
2019-03-31T21:55:52.979Z,2.40
2019-03-31T21:58:27.688Z,2.40
2019-03-31T22:01:03.338Z,2.23
2019-03-31T22:03:36.900Z,2.60
2019-03-31T22:06:10.511Z,2.00
2019-03-31T22:08:44.256Z,1.70
2019-03-31T22:11:21.144Z,2.60
2019-03-31T22:13:56.061Z,2.77
2019-03-31T22:16:29.770Z,2.10
2019-03-31T22:19:03.680Z,2.60
2019-03-31T22:21:38.675Z,2.10
2019-03-31T22:24:12.363Z,2.43
2019-03-31T22:26:46.065Z,2.20
2019-03-31T22:29:19.867Z,2.30
2019-03-31T22:31:54.016Z,2.17
2019-03-31T22:34:30.537Z,2.00
2019-03-31T22:37:05.350Z,2.00
2019-03-31T22:39:39.391Z,2.30
2019-03-31T22:42:13.076Z,2.20
2019-03-31T22:44:46.735Z,1.83
2019-03-31T22:47:20.992Z,2.47
2019-03-31T22:49:54.806Z,2.43
2019-03-31T22:52:28.501Z,2.10
2019-03-31T22:55:02.254Z,1.73
2019-03-31T22:57:37.038Z,2.50
2019-03-31T23:00:17.290Z,2.20
2019-03-31T23:02:52.025Z,2.20
2019-03-31T23:05:25.766Z,1.83
2019-03-31T23:08:00.870Z,2.00
2019-03-31T23:10:34.471Z,2.00
2019-03-31T23:13:11.043Z,1.60
2019-03-31T23:15:44.737Z,1.73
2019-03-31T23:18:18.276Z,2.33
2019-03-31T23:20:51.859Z,2.43
2019-03-31T23:23:25.437Z,1.93
2019-03-31T23:25:59.169Z,2.33
2019-03-31T23:28:32.767Z,1.90
2019-03-31T23:31:06.374Z,1.77
2019-03-31T23:33:40.204Z,2.20
2019-03-31T23:36:13.828Z,2.10
2019-03-31T23:38:47.360Z,2.30
2019-03-31T23:41:20.947Z,2.20
2019-03-31T23:43:56.432Z,2.10
2019-03-31T23:46:30.649Z,2.23
2019-03-31T23:49:04.355Z,1.63
2019-03-31T23:51:39.290Z,1.60
2019-03-31T23:54:13.036Z,1.50
2019-03-31T23:56:46.812Z,1.67
2019-03-31T23:59:21.529Z,1.97
